LOWG/GRZ METAR and TAF weather

Enter ICAO airport designator
Station Type Date Time Source
LOWG METAR 2019/05/27 09:20 UTC NOAA

LOWG 270920Z 16003KT 9999 FEW030 SCT043 OVC050 16/13 Q1012 TEMPO FM1030 RA


Station Type Date Time Source
LOWG Decoded METAR 2019/05/27 09:20 UTC NOAA

Graz-Thalerhof-Flughafen, Austria (LOWG) 47-00N 015-26E 347M
May 27, 2019 - 05:20 AM EDT / 2019.05.27 0920 UTC
Wind: from the SSE (160 degrees) at 3 MPH (3 KT):0
Visibility: greater than 7 mile(s):0
Sky conditions: overcast
Temperature: 60 F (16 C)
Dew Point: 55 F (13 C)
Relative Humidity: 82%
Pressure (altimeter): 29.88 in. Hg (1012 hPa)
ob: LOWG 270920Z 16003KT 9999 FEW030 SCT043 OVC050 16/13 Q1012 TEMPO FM1030 RA
cycle: 9

Station Type Date Time Source
LOWG TAF 2019/05/27 06:21 UTC NOAA

TAF TAF LOWG 270515Z 2706/2806 VRB02KT 9999 FEW030 BKN050 OVC070 TX19/2712Z TN13/2803Z
TEMPO 2706/2720 16005KT -RA SCT020 BKN040 PROB40
TEMPO 2706/2716 RA FEW012 BKN025
BECMG 2802/2804 2000 BR BKN003

Example: see airport list